Terminal Aerodrome Forecast
Issued by NWS

Current Version | Previous Version | Text Only | Print | Product List | Glossary On
Versions: 1 2 3 4 5 6 7 8 9 10 11 12
000
FTUS45 KABQ 191100
TAFLVS
TAF
KLVS 191140Z 1912/2012 02009KT P6SM SKC
     FM191300 02012G18KT P6SM FEW040
     FM191700 04011KT P6SM SCT060
     FM191930 08010KT P6SM VCTS BKN060CB
     FM192300 14012KT P6SM VCSH SCT070 BKN140
     FM200200 09009KT P6SM SCT050 SCT120
      TEMPO 2004/2007 BKN040
     FM200700 VRB06KT P6SM BKN040=

USA.gov is the U.S. government's official web portal to all federal, state and local government web resources and services.